createdAt,value
2016-04-16T00:00:14.618Z,95.22
2016-04-16T00:01:14.621Z,95.22
2016-04-16T00:02:14.624Z,95.22
2016-04-16T00:03:14.627Z,95.22
2016-04-16T00:04:14.630Z,95.32
2016-04-16T00:05:14.616Z,94.93
2016-04-16T00:06:14.619Z,95.03
2016-04-16T00:07:14.621Z,94.18
2016-04-16T00:08:14.624Z,94.93
2016-04-16T00:09:14.627Z,95.17
2016-04-16T00:10:14.629Z,94.89
2016-04-16T00:11:14.632Z,95.22
2016-04-16T00:12:14.634Z,95.22
2016-04-16T00:13:14.637Z,95.08
2016-04-16T00:14:14.624Z,95.27
2016-04-16T00:15:14.627Z,94.51
2016-04-16T00:16:14.615Z,94.7
2016-04-16T00:17:14.633Z,94.51
2016-04-16T00:18:14.620Z,94.98
2016-04-16T00:19:14.623Z,94.89
2016-04-16T00:20:14.625Z,94.89
2016-04-16T00:21:14.628Z,94.13
2016-04-16T00:22:14.631Z,94.98
2016-04-16T00:23:14.634Z,95.27
2016-04-16T00:24:14.621Z,94.79
2016-04-16T00:25:14.623Z,94.98
2016-04-16T00:26:14.626Z,94.89
2016-04-16T00:27:14.628Z,94.79
2016-04-16T00:28:14.631Z,94.6
2016-04-16T00:29:14.634Z,94.7
2016-04-16T00:30:14.621Z,94.89
2016-04-16T00:31:14.624Z,95.08
2016-04-16T00:32:14.626Z,95.08
2016-04-16T00:33:14.629Z,94.7
2016-04-16T00:34:14.616Z,94.89
2016-04-16T00:35:14.619Z,95.08
2016-04-16T00:36:14.622Z,94.98
2016-04-16T00:37:14.624Z,94.79
2016-04-16T00:38:14.627Z,94.98
2016-04-16T00:39:14.629Z,94.79
2016-04-16T00:40:14.616Z,94.98
2016-04-16T00:41:14.619Z,95.17
2016-04-16T00:42:14.621Z,95.08
2016-04-16T00:43:14.624Z,95.08
2016-04-16T00:44:14.626Z,95.17
2016-04-16T00:45:14.629Z,94.89
2016-04-16T00:46:14.617Z,95.17
2016-04-16T00:47:14.620Z,95.08
2016-04-16T00:48:14.623Z,95.08
2016-04-16T00:49:14.626Z,95.17
2016-04-16T00:50:14.628Z,95.17
2016-04-16T00:51:14.615Z,94.89
2016-04-16T00:52:14.617Z,94.98
2016-04-16T00:53:14.621Z,95.08
2016-04-16T00:54:14.623Z,94.89
2016-04-16T00:55:14.626Z,94.89
2016-04-16T00:56:14.629Z,94.98
2016-04-16T00:57:14.631Z,95.08
2016-04-16T00:58:14.634Z,94.89
2016-04-16T00:59:14.620Z,95.08
2016-04-16T01:00:14.623Z,95.56
2016-04-16T01:01:14.625Z,95.27
2016-04-16T01:02:14.628Z,95.46
2016-04-16T01:03:14.616Z,95.56
2016-04-16T01:04:14.619Z,95.36
2016-04-16T01:05:14.731Z,95.08
2016-04-16T01:06:14.624Z,95.08
2016-04-16T01:07:14.627Z,95.08
2016-04-16T01:08:14.629Z,95.46
2016-04-16T01:09:14.616Z,95.27
2016-04-16T01:10:14.619Z,95.27
2016-04-16T01:11:14.637Z,95.27
2016-04-16T01:12:14.624Z,95.84
2016-04-16T01:13:14.626Z,95.65
2016-04-16T01:14:14.630Z,95.65
2016-04-16T01:15:14.632Z,95.84
2016-04-16T01:16:14.620Z,95.84
2016-04-16T01:17:14.622Z,95.75
2016-04-16T01:18:14.625Z,95.75
2016-04-16T01:19:14.628Z,95.36
2016-04-16T01:20:14.505Z,95.56
2016-04-16T01:21:14.634Z,95.65
2016-04-16T01:22:14.620Z,95.75
2016-04-16T01:23:14.623Z,95.08
2016-04-16T01:24:14.625Z,95.36
2016-04-16T01:25:14.612Z,95.36
2016-04-16T01:26:14.614Z,95.36
2016-04-16T01:27:14.633Z,95.27
2016-04-16T01:28:14.620Z,95.17
2016-04-16T01:29:14.623Z,95.17
2016-04-16T01:30:14.625Z,95.46
2016-04-16T01:31:14.628Z,95.36
2016-04-16T01:32:14.631Z,95.46
2016-04-16T01:33:14.618Z,95.56
2016-04-16T01:34:14.621Z,95.56
2016-04-16T01:35:14.811Z,95.65
2016-04-16T01:36:14.626Z,95.65
2016-04-16T01:37:14.613Z,95.56
2016-04-16T01:38:14.616Z,95.6
2016-04-16T01:39:14.634Z,95.6
2016-04-16T01:40:14.621Z,95.7
2016-04-16T01:41:14.624Z,95.79
2016-04-16T01:42:14.610Z,95.7
2016-04-16T01:43:14.629Z,95.79
2016-04-16T01:44:14.616Z,96.5
2016-04-16T01:45:14.619Z,95.94
2016-04-16T01:46:14.622Z,96.6
2016-04-16T01:47:14.625Z,96.26
2016-04-16T01:48:14.627Z,95.89
2016-04-16T01:49:14.615Z,95.7
2016-04-16T01:50:14.679Z,95.7
2016-04-16T01:51:14.620Z,95.7
2016-04-16T01:52:14.622Z,95.98
2016-04-16T01:53:14.625Z,95.79
2016-04-16T01:54:14.628Z,95.51
2016-04-16T01:55:14.615Z,96.17
2016-04-16T01:56:14.618Z,96.65
2016-04-16T01:57:14.620Z,96.36
2016-04-16T01:58:14.623Z,96.17
2016-04-16T01:59:14.625Z,96.26
2016-04-16T02:00:14.613Z,96.74
2016-04-16T02:01:14.630Z,96.65
2016-04-16T02:02:14.618Z,96.93
2016-04-16T02:03:14.625Z,96.65
2016-04-16T02:04:14.455Z,96.45
2016-04-16T02:05:14.661Z,96.55
2016-04-16T02:06:14.617Z,96.45
2016-04-16T02:07:14.604Z,96.55
2016-04-16T02:08:14.622Z,97.31
2016-04-16T02:09:14.609Z,97.31
2016-04-16T02:10:14.612Z,97.22
2016-04-16T02:11:14.615Z,96.93
2016-04-16T02:12:14.634Z,97.03
2016-04-16T02:13:14.620Z,97.12
2016-04-16T02:14:14.623Z,97.12
2016-04-16T02:15:14.625Z,97.03
2016-04-16T02:16:14.613Z,97.03
2016-04-16T02:17:14.615Z,96.93
2016-04-16T02:18:14.618Z,96.84
2016-04-16T02:19:14.621Z,97.03
2016-04-16T02:20:14.624Z,96.84
2016-04-16T02:21:14.610Z,97.03
2016-04-16T02:22:14.616Z,97.22
2016-04-16T02:23:14.618Z,97.22
2016-04-16T02:24:14.621Z,96.84
2016-04-16T02:25:14.623Z,96.84
2016-04-16T02:26:14.610Z,97.03
2016-04-16T02:27:14.613Z,96.93
2016-04-16T02:28:14.615Z,97.03
2016-04-16T02:29:14.619Z,97.03
2016-04-16T02:30:14.621Z,97.5
2016-04-16T02:31:14.609Z,97.41
2016-04-16T02:32:14.611Z,97.31
2016-04-16T02:33:14.614Z,97.6
2016-04-16T02:34:14.616Z,97.31
2016-04-16T02:35:14.619Z,97.31
2016-04-16T02:36:14.606Z,97.41
2016-04-16T02:37:14.625Z,97.5
2016-04-16T02:38:14.612Z,97.22
2016-04-16T02:39:14.614Z,97.5
2016-04-16T02:40:14.617Z,97.22
2016-04-16T02:41:14.603Z,97.41
2016-04-16T02:42:14.606Z,97.31
2016-04-16T02:43:14.624Z,97.31
2016-04-16T02:44:14.652Z,97.41
2016-04-16T02:45:14.698Z,97.41
2016-04-16T02:46:14.759Z,97.22
2016-04-16T02:47:14.789Z,97.31
2016-04-16T02:48:14.819Z,97.31
2016-04-16T02:49:14.838Z,97.41
2016-04-16T02:50:14.856Z,97.5
2016-04-16T02:51:14.874Z,97.22
2016-04-16T02:52:14.892Z,97.22
2016-04-16T02:53:14.895Z,97.22
2016-04-16T02:54:14.903Z,97.41
2016-04-16T02:55:14.911Z,97.12
2016-04-16T02:56:14.920Z,97.41
2016-04-16T02:57:21.381Z,97.41
2016-04-16T02:58:14.936Z,97.31
2016-04-16T02:59:14.926Z,97.31
2016-04-16T03:00:14.931Z,97.12
2016-04-16T03:01:14.935Z,97.41
2016-04-16T03:02:14.941Z,97.5
2016-04-16T03:03:14.945Z,97.22
2016-04-16T03:04:14.948Z,97.31
2016-04-16T03:05:14.952Z,97.41
2016-04-16T03:06:14.939Z,97.31
2016-04-16T03:07:14.943Z,97.31
2016-04-16T03:08:14.946Z,97.31
2016-04-16T03:09:14.949Z,97.31
2016-04-16T03:10:14.936Z,97.31
2016-04-16T03:11:14.940Z,97.5
2016-04-16T03:12:14.943Z,97.5
2016-04-16T03:13:14.946Z,97.31
2016-04-16T03:14:14.948Z,97.31
2016-04-16T03:15:14.951Z,97.22
2016-04-16T03:16:14.954Z,97.69
2016-04-16T03:17:14.925Z,97.41
2016-04-16T03:18:14.944Z,97.12
2016-04-16T03:19:14.946Z,97.31
2016-04-16T03:20:14.934Z,97.5
2016-04-16T03:21:14.952Z,97.12
2016-04-16T03:22:14.939Z,97.5
2016-04-16T03:23:14.941Z,97.64
2016-04-16T03:24:14.944Z,97.64
2016-04-16T03:25:14.946Z,97.69
2016-04-16T03:26:14.933Z,97.27
2016-04-16T03:27:14.952Z,97.36
2016-04-16T03:28:14.971Z,97.27
2016-04-16T03:29:14.942Z,97.27
2016-04-16T03:30:14.960Z,97.36
2016-04-16T03:31:14.947Z,97.27
2016-04-16T03:32:14.950Z,97.36
2016-04-16T03:33:14.937Z,97.27
2016-04-16T03:34:14.940Z,97.27
2016-04-16T03:35:14.942Z,97.45
2016-04-16T03:36:14.929Z,97.36
2016-04-16T03:37:14.932Z,97.45
2016-04-16T03:38:14.935Z,97.45
2016-04-16T03:39:14.937Z,97.36
2016-04-16T03:40:14.940Z,97.45
2016-04-16T03:41:14.943Z,97.45
2016-04-16T03:42:14.930Z,97.55
2016-04-16T03:43:14.934Z,97.55
2016-04-16T03:44:14.951Z,97.45
2016-04-16T03:45:14.939Z,97.27
2016-04-16T03:46:14.941Z,97.17
2016-04-16T03:47:14.944Z,97.07
2016-04-16T03:48:14.931Z,97.07
2016-04-16T03:49:14.933Z,97.45
2016-04-16T03:50:14.952Z,97.45
2016-04-16T03:51:14.938Z,97.17
2016-04-16T03:52:14.973Z,96.83
2016-04-16T03:53:14.944Z,96.93
2016-04-16T03:54:14.947Z,97.22
2016-04-16T03:55:14.933Z,96.93
2016-04-16T03:56:14.936Z,97.41
2016-04-16T03:57:14.939Z,97.41
2016-04-16T03:58:14.941Z,97.41
2016-04-16T03:59:14.929Z,97.41
2016-04-16T04:00:14.931Z,97.12
2016-04-16T04:01:14.934Z,97.41
2016-04-16T04:02:14.937Z,97.41
2016-04-16T04:03:14.940Z,97.41
2016-04-16T04:04:14.943Z,97.41
2016-04-16T04:05:14.929Z,97.02
2016-04-16T04:06:14.932Z,97.12
2016-04-16T04:07:14.918Z,97.22
2016-04-16T04:08:14.937Z,97.5
2016-04-16T04:09:14.924Z,97.12
2016-04-16T04:10:14.943Z,97.22
2016-04-16T04:11:14.930Z,97.88
2016-04-16T04:12:14.932Z,97.97
2016-04-16T04:13:14.935Z,98.26
2016-04-16T04:14:14.922Z,97.78
2016-04-16T04:15:14.925Z,97.88
2016-04-16T04:16:14.928Z,97.88
2016-04-16T04:17:14.930Z,97.6
2016-04-16T04:18:14.933Z,97.22
2016-04-16T04:19:14.936Z,97.22
2016-04-16T04:20:14.939Z,97.41
2016-04-16T04:21:14.926Z,97.41
2016-04-16T04:22:14.928Z,97.02
2016-04-16T04:23:14.931Z,97.12
2016-04-16T04:24:14.933Z,97.12
2016-04-16T04:25:14.921Z,97.41
2016-04-16T04:26:14.923Z,97.22
2016-04-16T04:27:14.941Z,97.88
2016-04-16T04:28:14.929Z,97.6
2016-04-16T04:29:14.932Z,97.97
2016-04-16T04:30:14.935Z,97.97
2016-04-16T04:31:14.921Z,97.88
2016-04-16T04:32:14.924Z,98.16
2016-04-16T04:33:14.942Z,97.6
2016-04-16T04:34:14.930Z,97.69
2016-04-16T04:35:14.932Z,98.07
2016-04-16T04:36:14.919Z,97.69
2016-04-16T04:37:14.938Z,98.07
2016-04-16T04:38:14.924Z,98.16
2016-04-16T04:39:14.927Z,98.26
2016-04-16T04:40:14.914Z,98.26
2016-04-16T04:41:14.932Z,98.26
2016-04-16T04:42:14.919Z,98.26
2016-04-16T04:43:14.923Z,98.26
2016-04-16T04:44:14.925Z,98.26
2016-04-16T04:45:14.928Z,97.88
2016-04-16T04:46:14.931Z,98.45
2016-04-16T04:47:14.917Z,98.45
2016-04-16T04:48:14.920Z,98.45
2016-04-16T04:49:14.922Z,98.83
2016-04-16T04:50:14.925Z,98.69
2016-04-16T04:51:14.928Z,98.83
2016-04-16T04:52:14.931Z,98.59
2016-04-16T04:53:14.918Z,98.79
2016-04-16T04:54:14.920Z,98.88
2016-04-16T04:55:14.939Z,98.79
2016-04-16T04:56:14.925Z,98.88
2016-04-16T04:57:14.928Z,98.88
2016-04-16T04:58:14.759Z,99.07
2016-04-16T04:59:14.919Z,98.4
2016-04-16T05:00:14.921Z,98.69
2016-04-16T05:01:14.924Z,98.5
2016-04-16T05:02:14.911Z,98.79
2016-04-16T05:03:14.929Z,98.5
2016-04-16T05:04:14.916Z,98.59
2016-04-16T05:05:14.918Z,98.59
2016-04-16T05:06:14.921Z,98.59
2016-04-16T05:07:14.924Z,98.59
2016-04-16T05:08:14.915Z,98.79
2016-04-16T05:09:14.917Z,99.07
2016-04-16T05:10:14.920Z,98.69
2016-04-16T05:11:14.922Z,98.69
2016-04-16T05:12:14.926Z,98.59
2016-04-16T05:13:14.928Z,98.4
2016-04-16T05:14:14.915Z,98.88
2016-04-16T05:15:14.902Z,98.69
2016-04-16T05:16:14.920Z,99.07
2016-04-16T05:17:14.906Z,99.07
2016-04-16T05:18:14.925Z,99.02
2016-04-16T05:19:14.912Z,99.97
2016-04-16T05:20:14.915Z,99.99
2016-04-16T05:21:14.918Z,99.98
2016-04-16T05:22:14.921Z,99.99
2016-04-16T05:23:14.906Z,99.99
2016-04-16T05:24:14.926Z,99.99
2016-04-16T05:25:14.911Z,99.99
2016-04-16T05:26:14.914Z,99.99
2016-04-16T05:27:14.916Z,99.99
2016-04-16T05:28:14.918Z,99.99
2016-04-16T05:29:14.922Z,99.99
2016-04-16T05:30:14.924Z,99.99
2016-04-16T05:31:14.927Z,99.99
2016-04-16T05:32:14.914Z,99.18
2016-04-16T05:33:14.917Z,99.08
2016-04-16T05:34:14.919Z,99.43
2016-04-16T05:35:14.921Z,98.75
2016-04-16T05:36:14.924Z,98.23
2016-04-16T05:37:14.927Z,98.23
2016-04-16T05:38:14.914Z,98.57
2016-04-16T05:39:14.916Z,98.18
2016-04-16T05:40:14.919Z,97.56
2016-04-16T05:41:14.922Z,96.99
2016-04-16T05:42:14.925Z,96.51
2016-04-16T05:43:14.927Z,95.07
2016-04-16T05:44:14.930Z,94.98
2016-04-16T05:45:14.932Z,94.6
2016-04-16T05:46:14.935Z,95.03
2016-04-16T05:47:14.938Z,94.84
2016-04-16T05:48:14.940Z,94.89
2016-04-16T05:49:14.929Z,95.65
2016-04-16T05:50:14.931Z,95.07
2016-04-16T05:51:14.934Z,95.56
2016-04-16T05:52:14.951Z,94.89
2016-04-16T05:53:14.939Z,95.65
2016-04-16T05:54:14.942Z,94.98
2016-04-16T05:55:14.928Z,94.79
2016-04-16T05:56:14.947Z,94.79
2016-04-16T05:57:14.934Z,94.31
2016-04-16T05:58:14.967Z,94.51
2016-04-16T05:59:14.955Z,93.93
2016-04-16T06:00:14.941Z,93.36
2016-04-16T06:01:14.945Z,93.12
2016-04-16T06:02:14.947Z,92.88
2016-04-16T06:03:14.950Z,92.02
2016-04-16T06:04:14.952Z,91.78
2016-04-16T06:05:14.955Z,91.02
2016-04-16T06:06:14.958Z,91.2
2016-04-16T06:07:14.945Z,89.67
2016-04-16T06:08:15.026Z,89.39
2016-04-16T06:09:14.966Z,88.24
2016-04-16T06:10:14.953Z,87.62
2016-04-16T06:11:14.971Z,86.76
2016-04-16T06:12:14.959Z,85.99
2016-04-16T06:13:14.962Z,85.17
2016-04-16T06:14:14.980Z,83.64
2016-04-16T06:15:14.967Z,82.97
2016-04-16T06:16:14.970Z,81.63
2016-04-16T06:17:14.973Z,80.87
2016-04-16T06:18:14.976Z,80.29
2016-04-16T06:19:14.978Z,79.72
2016-04-16T06:20:14.981Z,78.57
2016-04-16T06:21:14.983Z,77.7
2016-04-16T06:22:14.986Z,77.23
2016-04-16T06:23:14.988Z,76.08
2016-04-16T06:24:14.976Z,75.41
2016-04-16T06:25:14.994Z,74.3
2016-04-16T06:26:14.981Z,73.54
2016-04-16T06:27:14.984Z,72.86
2016-04-16T06:28:14.986Z,72
2016-04-16T06:29:14.988Z,71.33
2016-04-16T06:30:14.992Z,71.33
2016-04-16T06:31:14.994Z,70.95
2016-04-16T06:32:14.997Z,70.28
2016-04-16T06:33:14.983Z,69.99
2016-04-16T06:34:15.002Z,69.89
2016-04-16T06:35:14.989Z,69.42
2016-04-16T06:36:15.007Z,69.09
2016-04-16T06:37:15.011Z,69.09
2016-04-16T06:38:15.044Z,69.29
2016-04-16T06:39:15.000Z,69.67
2016-04-16T06:40:15.018Z,69.29
2016-04-16T06:41:15.005Z,69.92
2016-04-16T06:42:15.008Z,70.11
2016-04-16T06:43:15.011Z,69.92
2016-04-16T06:44:15.014Z,69.82
2016-04-16T06:45:15.016Z,69.06
2016-04-16T06:46:15.019Z,69.41
2016-04-16T06:47:15.021Z,70.17
2016-04-16T06:48:15.024Z,70.52
2016-04-16T06:49:15.012Z,70.81
2016-04-16T06:50:15.029Z,71.19
2016-04-16T06:51:15.126Z,71.53
2016-04-16T06:52:15.020Z,72.11
2016-04-16T06:53:15.023Z,72.26
2016-04-16T06:54:15.025Z,72.74
2016-04-16T06:55:15.028Z,72.93
2016-04-16T06:56:15.031Z,73.6
2016-04-16T06:57:15.033Z,73.32
2016-04-16T06:58:15.036Z,73.94
2016-04-16T06:59:15.039Z,74.32
2016-04-16T07:00:15.041Z,74.52
2016-04-16T07:01:15.044Z,74.8
2016-04-16T07:02:15.047Z,75.09
2016-04-16T07:03:15.049Z,75.37
2016-04-16T07:04:15.036Z,75.09
2016-04-16T07:05:15.039Z,75.42
2016-04-16T07:06:14.916Z,75.51
2016-04-16T07:07:15.044Z,75.32
2016-04-16T07:08:15.047Z,75.51
2016-04-16T07:09:15.049Z,75.42
2016-04-16T07:10:15.052Z,75.7
2016-04-16T07:11:15.054Z,75.51
2016-04-16T07:12:15.058Z,75.7
2016-04-16T07:13:15.061Z,75.7
2016-04-16T07:14:15.062Z,75.79
2016-04-16T07:15:15.050Z,75.7
2016-04-16T07:16:15.068Z,75.7
2016-04-16T07:17:15.055Z,75.7
2016-04-16T07:18:15.058Z,75.42
2016-04-16T07:19:15.060Z,76.08
2016-04-16T07:20:15.063Z,76.08
2016-04-16T07:21:15.081Z,76.08
2016-04-16T07:22:14.912Z,76.18
2016-04-16T07:23:15.071Z,76.27
2016-04-16T07:24:15.073Z,76.75
2016-04-16T07:25:15.061Z,76.46
2016-04-16T07:26:15.064Z,77.03
2016-04-16T07:27:15.067Z,76.84
2016-04-16T07:28:15.069Z,77.03
2016-04-16T07:29:15.072Z,77.19
2016-04-16T07:30:15.075Z,77.47
2016-04-16T07:31:15.078Z,78.23
2016-04-16T07:32:15.081Z,77.76
2016-04-16T07:33:15.083Z,78.23
2016-04-16T07:34:15.070Z,78.52
2016-04-16T07:35:15.072Z,78.33
2016-04-16T07:36:15.106Z,79
2016-04-16T07:37:15.078Z,79
2016-04-16T07:38:15.080Z,79.1
2016-04-16T07:39:15.083Z,79
2016-04-16T07:40:15.085Z,78.91
2016-04-16T07:41:15.088Z,78.81
2016-04-16T07:42:15.077Z,78.91
2016-04-16T07:43:15.078Z,79.1
2016-04-16T07:44:15.081Z,79.57
2016-04-16T07:45:15.084Z,79.38
2016-04-16T07:46:15.087Z,79.33
2016-04-16T07:47:15.090Z,79.61
2016-04-16T07:48:15.093Z,79.33
2016-04-16T07:49:15.095Z,79.61
2016-04-16T07:50:15.098Z,79.23
2016-04-16T07:51:15.115Z,79.04
2016-04-16T07:52:15.103Z,78.94
2016-04-16T07:53:15.090Z,78.94
2016-04-16T07:54:15.109Z,79.23
2016-04-16T07:55:15.111Z,78.94
2016-04-16T07:56:15.098Z,78.75
2016-04-16T07:57:15.101Z,78.75
2016-04-16T07:58:15.104Z,79.14
2016-04-16T07:59:15.105Z,78.75
2016-04-16T08:00:15.092Z,79.14
2016-04-16T08:01:15.112Z,78.47
2016-04-16T08:02:15.098Z,78.56
2016-04-16T08:03:15.100Z,78.56
2016-04-16T08:04:15.103Z,78.51
2016-04-16T08:05:15.106Z,78.51
2016-04-16T08:06:15.109Z,78.79
2016-04-16T08:07:15.111Z,78.79
2016-04-16T08:08:15.114Z,78.6
2016-04-16T08:09:15.117Z,78.31
2016-04-16T08:10:15.120Z,77.94
2016-04-16T08:11:15.107Z,77.78
2016-04-16T08:12:15.110Z,77.11
2016-04-16T08:13:15.112Z,76.92
2016-04-16T08:14:15.115Z,76.73
2016-04-16T08:15:15.118Z,76.82
2016-04-16T08:16:15.120Z,76.06
2016-04-16T08:17:15.113Z,75.87
2016-04-16T08:18:15.115Z,76.21
2016-04-16T08:19:15.118Z,76.03
2016-04-16T08:20:15.121Z,76.21
2016-04-16T08:21:15.123Z,76.31
2016-04-16T08:22:15.125Z,76.5
2016-04-16T08:23:15.129Z,76.88
2016-04-16T08:24:15.131Z,77.03
2016-04-16T08:25:15.134Z,76.98
2016-04-16T08:26:15.120Z,76.79
2016-04-16T08:27:15.123Z,77.08
2016-04-16T08:28:15.158Z,77.45
2016-04-16T08:29:15.144Z,77.23
2016-04-16T08:30:15.131Z,77.8
2016-04-16T08:31:15.134Z,77.61
2016-04-16T08:32:15.137Z,78.09
2016-04-16T08:33:15.139Z,77.8
2016-04-16T08:34:15.142Z,78.18
2016-04-16T08:35:15.145Z,78.56
2016-04-16T08:36:15.147Z,78.66
2016-04-16T08:37:15.150Z,78.47
2016-04-16T08:38:15.153Z,78.72
2016-04-16T08:39:15.140Z,78.94
2016-04-16T08:40:15.143Z,79.23
2016-04-16T08:41:15.146Z,79.38
2016-04-16T08:42:15.148Z,78.72
2016-04-16T08:43:15.135Z,79.48
2016-04-16T08:44:15.138Z,79.38
2016-04-16T08:45:15.141Z,79.38
2016-04-16T08:46:15.144Z,79.57
2016-04-16T08:47:15.146Z,79.57
2016-04-16T08:48:15.149Z,79.57
2016-04-16T08:49:15.151Z,79.28
2016-04-16T08:50:15.154Z,79.57
2016-04-16T08:51:15.157Z,79.28
2016-04-16T08:52:15.160Z,79.57
2016-04-16T08:53:15.146Z,79.61
2016-04-16T08:54:15.149Z,79.8
2016-04-16T08:55:15.152Z,79.57
2016-04-16T08:56:15.154Z,79.86
2016-04-16T08:57:15.157Z,80.24
2016-04-16T08:58:15.159Z,80.05
2016-04-16T08:59:15.162Z,80.05
2016-04-16T09:00:15.164Z,79.77
2016-04-16T09:01:15.153Z,80.15
2016-04-16T09:02:15.170Z,79.86
2016-04-16T09:03:15.158Z,79.77
2016-04-16T09:04:15.161Z,80.43
2016-04-16T09:05:15.163Z,80.43
2016-04-16T09:06:15.166Z,80.33
2016-04-16T09:07:15.169Z,80.24
2016-04-16T09:08:15.172Z,80.43
2016-04-16T09:09:15.174Z,80.33
2016-04-16T09:10:15.161Z,79.67
2016-04-16T09:11:15.163Z,80.53
2016-04-16T09:12:15.182Z,79.77
2016-04-16T09:13:15.169Z,79.77
2016-04-16T09:14:15.171Z,79.77
2016-04-16T09:15:15.174Z,79.86
2016-04-16T09:16:15.177Z,79.77
2016-04-16T09:17:15.180Z,80.43
2016-04-16T09:18:15.183Z,80.58
2016-04-16T09:19:15.184Z,80.39
2016-04-16T09:20:15.187Z,81.06
2016-04-16T09:21:15.190Z,81.06
2016-04-16T09:22:15.178Z,81.25
2016-04-16T09:23:15.180Z,81.25
2016-04-16T09:24:15.184Z,81.63
2016-04-16T09:25:15.186Z,82.01
2016-04-16T09:26:15.189Z,81.73
2016-04-16T09:27:15.175Z,81.92
2016-04-16T09:28:15.178Z,82.01
2016-04-16T09:29:15.181Z,82.01
2016-04-16T09:30:15.184Z,82.68
2016-04-16T09:31:15.187Z,82.4
2016-04-16T09:32:15.189Z,82.01
2016-04-16T09:33:15.192Z,82.01
2016-04-16T09:34:15.194Z,82.4
2016-04-16T09:35:15.181Z,81.96
2016-04-16T09:36:15.199Z,81.96
2016-04-16T09:37:15.202Z,81.38
2016-04-16T09:38:15.189Z,81.77
2016-04-16T09:39:15.192Z,81.1
2016-04-16T09:40:15.195Z,81.48
2016-04-16T09:41:15.197Z,81.48
2016-04-16T09:42:15.200Z,81.01
2016-04-16T09:43:15.202Z,81.01
2016-04-16T09:44:15.205Z,81.1
2016-04-16T09:45:15.192Z,80.43
2016-04-16T09:46:15.195Z,80.72
2016-04-16T09:47:15.198Z,80.66
2016-04-16T09:48:15.201Z,80.24
2016-04-16T09:49:15.203Z,80.28
2016-04-16T09:50:15.206Z,79.8
2016-04-16T09:51:15.209Z,79.99
2016-04-16T09:52:15.212Z,79.8
2016-04-16T09:53:15.199Z,80.28
2016-04-16T09:54:15.201Z,80.09
2016-04-16T09:55:15.204Z,80.09
2016-04-16T09:56:15.222Z,80.19
2016-04-16T09:57:15.209Z,80.38
2016-04-16T09:58:15.212Z,80.19
2016-04-16T09:59:15.214Z,79.33
2016-04-16T10:00:15.201Z,79.33
2016-04-16T10:01:15.203Z,79.71
2016-04-16T10:02:15.207Z,79.8
2016-04-16T10:03:15.210Z,79.71
2016-04-16T10:04:15.212Z,79.71
2016-04-16T10:05:15.214Z,79.43
2016-04-16T10:06:15.217Z,78.94
2016-04-16T10:07:15.220Z,78.6
2016-04-16T10:08:15.223Z,78.79
2016-04-16T10:09:15.211Z,78.41
2016-04-16T10:10:15.228Z,78.13
2016-04-16T10:11:15.216Z,78.41
2016-04-16T10:12:15.219Z,78.03
2016-04-16T10:13:15.221Z,77.94
2016-04-16T10:14:15.224Z,77.84
2016-04-16T10:15:15.227Z,78.51
2016-04-16T10:16:15.230Z,77.94
2016-04-16T10:17:15.247Z,78.03
2016-04-16T10:18:15.235Z,77.94
2016-04-16T10:19:15.237Z,77.94
2016-04-16T10:20:15.224Z,78.13
2016-04-16T10:21:15.226Z,78.22
2016-04-16T10:22:15.229Z,77.65
2016-04-16T10:23:15.232Z,77.84
2016-04-16T10:24:15.235Z,77.45
2016-04-16T10:25:15.238Z,76.82
2016-04-16T10:26:15.240Z,76.54
2016-04-16T10:27:15.243Z,77.21
2016-04-16T10:28:15.245Z,76.73
2016-04-16T10:29:15.248Z,76.45
2016-04-16T10:30:15.235Z,75.96
2016-04-16T10:31:15.238Z,75.91
2016-04-16T10:32:15.241Z,75.52
2016-04-16T10:33:15.244Z,74.85
2016-04-16T10:34:15.246Z,74.22
2016-04-16T10:35:15.249Z,73.36
2016-04-16T10:36:15.252Z,73.65
2016-04-16T10:37:15.239Z,73.08
2016-04-16T10:38:15.258Z,72.79
2016-04-16T10:39:15.244Z,72.34
2016-04-16T10:40:15.263Z,71.58
2016-04-16T10:41:15.249Z,70.09
2016-04-16T10:42:15.252Z,69.13
2016-04-16T10:43:15.255Z,68.17
2016-04-16T10:44:15.274Z,67.44
2016-04-16T10:45:15.260Z,67.25
2016-04-16T10:46:15.263Z,66.58
2016-04-16T10:47:15.250Z,65.46
2016-04-16T10:48:15.268Z,64.72
2016-04-16T10:49:15.271Z,63.12
2016-04-16T10:50:15.273Z,61.21
2016-04-16T10:51:15.260Z,60.15
2016-04-16T10:52:15.278Z,59.67
2016-04-16T10:53:15.265Z,59.09
2016-04-16T10:54:15.268Z,59
2016-04-16T10:55:15.271Z,58.81
2016-04-16T10:56:15.273Z,59.09
2016-04-16T10:57:15.276Z,58.78
2016-04-16T10:58:15.279Z,59
2016-04-16T10:59:15.282Z,58.97
2016-04-16T11:00:15.301Z,58.97
2016-04-16T11:01:15.288Z,58.97
2016-04-16T11:02:15.290Z,59.42
2016-04-16T11:03:15.278Z,60
2016-04-16T11:04:15.295Z,59.83
2016-04-16T11:05:15.298Z,59.45
2016-04-16T11:06:15.285Z,58.81
2016-04-16T11:07:15.303Z,58.23
2016-04-16T11:08:15.291Z,57.88
2016-04-16T11:09:15.309Z,56.66
2016-04-16T11:10:15.297Z,55.99
2016-04-16T11:11:15.299Z,55.44
2016-04-16T11:12:15.302Z,54.89
2016-04-16T11:13:15.304Z,54.5
2016-04-16T11:14:15.307Z,54.79
2016-04-16T11:15:15.309Z,54.69
2016-04-16T11:16:15.312Z,54.12
2016-04-16T11:17:15.315Z,54.22
2016-04-16T11:18:15.318Z,53.28
2016-04-16T11:19:15.320Z,52.89
2016-04-16T11:20:15.323Z,52.97
2016-04-16T11:21:15.310Z,52.68
2016-04-16T11:22:15.360Z,53.64
2016-04-16T11:23:15.331Z,53.45
2016-04-16T11:24:15.318Z,53.74
2016-04-16T11:25:15.321Z,54.31
2016-04-16T11:26:15.323Z,54.31
2016-04-16T11:27:15.326Z,54.31
2016-04-16T11:28:15.345Z,53.74
2016-04-16T11:29:15.331Z,53.45
2016-04-16T11:30:15.334Z,54.22
2016-04-16T11:31:15.336Z,53.83
2016-04-16T11:32:15.340Z,54.02
2016-04-16T11:33:15.342Z,54.41
2016-04-16T11:34:15.345Z,54.31
2016-04-16T11:35:15.348Z,53.92
2016-04-16T11:36:15.350Z,53.54
2016-04-16T11:37:15.556Z,53.54
2016-04-16T11:38:15.372Z,52.48
2016-04-16T11:39:15.358Z,52.97
2016-04-16T11:40:15.361Z,52.77
2016-04-16T11:41:15.364Z,53.25
2016-04-16T11:42:15.366Z,53.42
2016-04-16T11:43:15.369Z,53.42
2016-04-16T11:44:15.372Z,53.61
2016-04-16T11:45:15.374Z,53.03
2016-04-16T11:46:15.377Z,52.75
2016-04-16T11:47:15.380Z,53.03
2016-04-16T11:48:15.382Z,52.94
2016-04-16T11:49:15.385Z,53.3
2016-04-16T11:50:15.388Z,53.49
2016-04-16T11:51:15.418Z,53.2
2016-04-16T11:52:15.512Z,52.84
2016-04-16T11:53:15.528Z,52.84
2016-04-16T11:54:15.574Z,52.75
2016-04-16T11:55:15.605Z,51.88
2016-04-16T11:56:15.641Z,51.53
2016-04-16T11:57:15.643Z,51.53
2016-04-16T11:58:15.693Z,50.56
2016-04-16T11:59:15.680Z,49.43
2016-04-16T12:00:15.714Z,49.72
2016-04-16T12:01:15.706Z,49.46
2016-04-16T12:02:15.716Z,49.36
2016-04-16T12:03:15.740Z,48.79
2016-04-16T12:04:15.732Z,48.21
2016-04-16T12:05:15.741Z,48.4
2016-04-16T12:06:15.745Z,48.4
2016-04-16T12:07:15.735Z,48.49
2016-04-16T12:08:15.756Z,48.21
2016-04-16T12:09:15.807Z,48.03
2016-04-16T12:10:15.766Z,47.94
2016-04-16T12:11:15.769Z,48.43
2016-04-16T12:12:15.789Z,48.03
2016-04-16T12:13:15.776Z,47.85
2016-04-16T12:14:15.795Z,47.17
2016-04-16T12:15:15.846Z,47.27
2016-04-16T12:16:15.786Z,46.62
2016-04-16T12:17:15.805Z,46.62
2016-04-16T12:18:15.793Z,46.23
2016-04-16T12:19:15.811Z,46.04
2016-04-16T12:20:15.815Z,46.06
2016-04-16T12:21:15.801Z,45.87
2016-04-16T12:22:15.945Z,44.71
2016-04-16T12:23:15.806Z,45
2016-04-16T12:24:15.809Z,44.79
2016-04-16T12:25:15.812Z,44.98
2016-04-16T12:26:15.815Z,44.86
2016-04-16T12:27:15.817Z,44.98
2016-04-16T12:28:15.820Z,44.98
2016-04-16T12:29:15.823Z,44.98
2016-04-16T12:30:15.825Z,45.17
2016-04-16T12:31:15.828Z,44.59
2016-04-16T12:32:15.831Z,44.81
2016-04-16T12:33:15.834Z,44.71
2016-04-16T12:34:15.836Z,44.71
2016-04-16T12:35:15.838Z,44.81
2016-04-16T12:36:15.858Z,45
2016-04-16T12:37:15.876Z,44.9
2016-04-16T12:38:15.847Z,44.52
2016-04-16T12:39:15.850Z,44.13
2016-04-16T12:40:15.852Z,43.75
2016-04-16T12:41:15.855Z,43.75
2016-04-16T12:42:15.858Z,43.94
2016-04-16T12:43:15.876Z,43.65
2016-04-16T12:44:15.863Z,43.55
2016-04-16T12:45:15.866Z,43.07
2016-04-16T12:46:15.868Z,42.69
2016-04-16T12:47:15.887Z,43.07
2016-04-16T12:48:15.873Z,43.34
2016-04-16T12:49:15.893Z,43.34
2016-04-16T12:50:15.879Z,43.44
2016-04-16T12:51:15.882Z,43.9
2016-04-16T12:52:15.885Z,43.71
2016-04-16T12:53:15.903Z,43.9
2016-04-16T12:54:15.906Z,44.57
2016-04-16T12:55:15.892Z,44.86